Terminal Aerodrome Forecast
Issued by NWS Wilmington, OH

Home | Current Version | Previous Version | Text Only | Print | Product List | Glossary On
Versions: 1 2 3 4 5 6 7 8 9 10 11 12 13 14 15 16
000
FTUS41 KILN 241121
TAFILN
TAF
KILN 241121Z 2412/2512 11004KT P6SM SCT015 OVC150
      TEMPO 2412/2414 4SM BR BKN015
     FM241500 11005KT P6SM VCSH OVC040
     FM241900 10005KT 4SM SHRA VCTS OVC025CB
     FM250000 08009KT P6SM VCSH BKN015
     FM250600 21007KT 4SM BR VCSH OVC012=

USA.gov is the U.S. government's official web portal to all federal, state and local government web resources and services.